This is the latest recevied weather packets stored in our database for station/object JS1SZZ-13. If no packets are shown the sender has not sent any weather packets the latest 10 day(s).
| Time | Temp. | Humidity | Pressure | Rain* | Wind** | Luminosity | Snow |
|---|---|---|---|---|---|---|---|
| 1777893599 | 13.89° C | 46% | 1005.2 hPa | 0 mm | - | - | - |
| 1777892700 | 13.33° C | 50% | 1004.5 hPa | 0 mm | - | - | - |
| 1777891799 | 13.89° C | 47% | 1004.4 hPa | 0 mm | - | - | - |
| 1777890899 | 14.44° C | 48% | 1003.8 hPa | 0 mm | - | - | - |
| 1777890000 | 14.44° C | 45% | 1003.2 hPa | 0 mm | - | - | - |
| 1777889100 | 15° C | 41% | 1003 hPa | 0 mm | - | - | - |
| 1777888199 | 15.56° C | 38% | 1002.9 hPa | 0 mm | - | - | - |
| 1777887301 | 16.11° C | 38% | 1002.7 hPa | 0 mm | - | - | - |
| 1777886400 | 16.67° C | 41% | 1002.2 hPa | 0 mm | - | - | - |
| 1777885499 | 17.22° C | 41% | 1001.9 hPa | 0 mm | - | - | - |
| 1777884600 | 16.67° C | 52% | 1001.5 hPa | 0 mm | - | - | - |
| 1777883700 | 18.33° C | 38% | 1000.6 hPa | 0 mm | - | - | - |
| 1777882799 | 18.89° C | 33% | 1000.3 hPa | 0 mm | - | - | - |
| 1777881901 | 19.44° C | 36% | 999.9 hPa | 0 mm | - | - | - |
| 1777881000 | 20.56° C | 35% | 999.7 hPa | 0 mm | - | - | - |
| 1777880099 | 20.56° C | 34% | 999.4 hPa | 0 mm | - | - | - |
| 1777879200 | 20.56° C | 37% | 999.1 hPa | 0 mm | - | - | - |
| 1777878300 | 22.22° C | 34% | 998.2 hPa | 0 mm | - | - | - |
| 1777877399 | 22.22° C | 31% | 997.6 hPa | 0 mm | - | - | - |
| 1777876501 | 23.33° C | 27% | 997 hPa | 0 mm | - | - | - |
| 1777875600 | 23.89° C | 29% | 997 hPa | 0 mm | - | - | - |
| 1777874699 | 23.89° C | 28% | 996.5 hPa | 0 mm | - | - | - |
| 1777873801 | 24.44° C | 29% | 996.5 hPa | 0 mm | - | - | - |
| 1777872900 | 24.44° C | 25% | 996.2 hPa | 0 mm | - | - | - |
| 1777872000 | 24.44° C | 23% | 995.8 hPa | 0 mm | - | - | - |
* Rain latest hour (hover to see other rain measurements)
** Current wind speed in m/s (hover to see current wind gust speed)